sensor_id;sensor_type;location;lat;lon;timestamp;pressure;altitude;pressure_sealevel;temperature;humidity
31911;BME280;18457;52.432;16.914;2023-04-21T00:01:30;100993.64;;;12.30;71.07
31911;BME280;18457;52.432;16.914;2023-04-21T00:04:04;100992.77;;;12.28;70.83
31911;BME280;18457;52.432;16.914;2023-04-21T00:06:37;100991.47;;;12.30;70.87
31911;BME280;18457;52.432;16.914;2023-04-21T00:09:11;100991.30;;;12.29;70.96
31911;BME280;18457;52.432;16.914;2023-04-21T00:11:43;100987.16;;;12.28;70.86
31911;BME280;18457;52.432;16.914;2023-04-21T00:14:15;100987.27;;;12.23;70.92
31911;BME280;18457;52.432;16.914;2023-04-21T00:16:47;100985.41;;;12.17;71.01
31911;BME280;18457;52.432;16.914;2023-04-21T00:19:22;100986.80;;;12.20;71.31
31911;BME280;18457;52.432;16.914;2023-04-21T00:21:54;100985.04;;;12.17;71.08
31911;BME280;18457;52.432;16.914;2023-04-21T00:24:28;100987.66;;;12.21;71.07
31911;BME280;18457;52.432;16.914;2023-04-21T00:27:00;100981.52;;;12.21;71.04
31911;BME280;18457;52.432;16.914;2023-04-21T00:29:33;100985.52;;;12.20;70.82
31911;BME280;18457;52.432;16.914;2023-04-21T00:32:06;100981.05;;;12.17;70.85
31911;BME280;18457;52.432;16.914;2023-04-21T00:34:39;100984.81;;;12.11;70.69
31911;BME280;18457;52.432;16.914;2023-04-21T00:37:11;100980.81;;;12.12;70.89
31911;BME280;18457;52.432;16.914;2023-04-21T00:39:43;100982.73;;;12.07;70.84
31911;BME280;18457;52.432;16.914;2023-04-21T00:42:17;100984.00;;;12.06;71.18
31911;BME280;18457;52.432;16.914;2023-04-21T00:44:48;100983.64;;;12.06;70.87
31911;BME280;18457;52.432;16.914;2023-04-21T00:47:22;100982.91;;;11.97;71.05
31911;BME280;18457;52.432;16.914;2023-04-21T00:49:55;100984.81;;;11.93;71.15
31911;BME280;18457;52.432;16.914;2023-04-21T00:52:26;100977.55;;;11.95;71.32
31911;BME280;18457;52.432;16.914;2023-04-21T00:54:59;100977.11;;;11.98;71.46
31911;BME280;18457;52.432;16.914;2023-04-21T00:57:32;100980.95;;;11.96;71.32
31911;BME280;18457;52.432;16.914;2023-04-21T01:00:08;100977.23;;;11.92;71.34
31911;BME280;18457;52.432;16.914;2023-04-21T01:02:41;100976.28;;;11.94;71.24
31911;BME280;18457;52.432;16.914;2023-04-21T01:05:17;100972.49;;;11.85;71.35
31911;BME280;18457;52.432;16.914;2023-04-21T01:07:48;100977.39;;;11.85;71.66
31911;BME280;18457;52.432;16.914;2023-04-21T01:10:20;100980.43;;;11.86;71.93
31911;BME280;18457;52.432;16.914;2023-04-21T01:12:52;100979.21;;;11.84;71.71
31911;BME280;18457;52.432;16.914;2023-04-21T01:15:24;100975.94;;;11.84;71.47
31911;BME280;18457;52.432;16.914;2023-04-21T01:17:57;100973.98;;;11.73;71.58
31911;BME280;18457;52.432;16.914;2023-04-21T01:20:29;100975.30;;;11.70;71.73
31911;BME280;18457;52.432;16.914;2023-04-21T01:23:01;100969.92;;;11.68;71.73
31911;BME280;18457;52.432;16.914;2023-04-21T01:25:32;100970.61;;;11.71;71.51
31911;BME280;18457;52.432;16.914;2023-04-21T01:28:07;100970.81;;;11.70;71.25
31911;BME280;18457;52.432;16.914;2023-04-21T01:30:39;100974.17;;;11.73;70.99
31911;BME280;18457;52.432;16.914;2023-04-21T01:33:11;100972.55;;;11.73;71.12
31911;BME280;18457;52.432;16.914;2023-04-21T01:35:42;100970.73;;;11.73;71.18
31911;BME280;18457;52.432;16.914;2023-04-21T01:38:15;100971.48;;;11.72;71.03
31911;BME280;18457;52.432;16.914;2023-04-21T01:40:52;100971.39;;;11.68;70.73
31911;BME280;18457;52.432;16.914;2023-04-21T01:43:25;100969.46;;;11.63;70.76
31911;BME280;18457;52.432;16.914;2023-04-21T01:45:57;100969.59;;;11.56;70.73
31911;BME280;18457;52.432;16.914;2023-04-21T01:48:29;100973.02;;;11.57;70.89
31911;BME280;18457;52.432;16.914;2023-04-21T01:51:02;100973.77;;;11.56;70.85
31911;BME280;18457;52.432;16.914;2023-04-21T01:53:34;100972.67;;;11.56;70.78
31911;BME280;18457;52.432;16.914;2023-04-21T01:56:08;100973.23;;;11.45;70.97
31911;BME280;18457;52.432;16.914;2023-04-21T01:58:43;100972.81;;;11.48;70.85
31911;BME280;18457;52.432;16.914;2023-04-21T02:01:16;100968.97;;;11.51;70.86
31911;BME280;18457;52.432;16.914;2023-04-21T02:03:48;100972.98;;;11.48;70.78
31911;BME280;18457;52.432;16.914;2023-04-21T02:06:20;100971.39;;;11.48;70.75
31911;BME280;18457;52.432;16.914;2023-04-21T02:08:52;100968.59;;;11.41;71.15
31911;BME280;18457;52.432;16.914;2023-04-21T02:11:25;100968.44;;;11.40;71.15
31911;BME280;18457;52.432;16.914;2023-04-21T02:13:59;100967.98;;;11.36;71.53
31911;BME280;18457;52.432;16.914;2023-04-21T02:16:31;100963.34;;;11.32;71.23
31911;BME280;18457;52.432;16.914;2023-04-21T02:19:04;100965.28;;;11.34;71.36
31911;BME280;18457;52.432;16.914;2023-04-21T02:21:38;100965.85;;;11.33;71.07
31911;BME280;18457;52.432;16.914;2023-04-21T02:24:08;100970.02;;;11.33;71.29
31911;BME280;18457;52.432;16.914;2023-04-21T02:26:42;100966.61;;;11.32;71.02
31911;BME280;18457;52.432;16.914;2023-04-21T02:29:14;100970.86;;;11.27;70.99
31911;BME280;18457;52.432;16.914;2023-04-21T02:31:47;100968.16;;;11.26;71.05
31911;BME280;18457;52.432;16.914;2023-04-21T02:34:35;100967.98;;;11.25;70.84
31911;BME280;18457;52.432;16.914;2023-04-21T02:37:07;100974.30;;;11.26;70.75
31911;BME280;18457;52.432;16.914;2023-04-21T02:39:39;100972.63;;;11.19;70.68
31911;BME280;18457;52.432;16.914;2023-04-21T02:42:13;100973.20;;;11.16;70.79
31911;BME280;18457;52.432;16.914;2023-04-21T02:44:45;100973.21;;;11.15;70.76
31911;BME280;18457;52.432;16.914;2023-04-21T02:47:17;100975.89;;;11.18;70.56
31911;BME280;18457;52.432;16.914;2023-04-21T02:49:49;100973.23;;;11.15;70.36
31911;BME280;18457;52.432;16.914;2023-04-21T02:52:21;100979.31;;;11.19;70.05
31911;BME280;18457;52.432;16.914;2023-04-21T02:54:54;100974.95;;;11.20;70.23
31911;BME280;18457;52.432;16.914;2023-04-21T02:57:28;100978.41;;;11.18;70.22
31911;BME280;18457;52.432;16.914;2023-04-21T03:00:00;100971.77;;;11.16;69.98
31911;BME280;18457;52.432;16.914;2023-04-21T03:02:32;100975.04;;;11.15;69.76
31911;BME280;18457;52.432;16.914;2023-04-21T03:05:04;100967.50;;;11.11;69.70
31911;BME280;18457;52.432;16.914;2023-04-21T03:07:39;100970.39;;;11.12;69.36
31911;BME280;18457;52.432;16.914;2023-04-21T03:10:11;100966.64;;;11.09;69.37
31911;BME280;18457;52.432;16.914;2023-04-21T03:12:42;100965.56;;;11.09;69.60
31911;BME280;18457;52.432;16.914;2023-04-21T03:15:14;100965.02;;;11.09;69.24
31911;BME280;18457;52.432;16.914;2023-04-21T03:17:46;100963.20;;;11.10;69.24
31911;BME280;18457;52.432;16.914;2023-04-21T03:20:18;100960.70;;;11.07;69.09
31911;BME280;18457;52.432;16.914;2023-04-21T03:22:53;100966.90;;;11.05;69.10
31911;BME280;18457;52.432;16.914;2023-04-21T03:25:25;100963.08;;;11.06;68.99
31911;BME280;18457;52.432;16.914;2023-04-21T03:27:58;100963.60;;;11.07;68.81
31911;BME280;18457;52.432;16.914;2023-04-21T03:30:30;100960.51;;;11.08;68.83
31911;BME280;18457;52.432;16.914;2023-04-21T03:33:02;100964.48;;;11.09;68.46
31911;BME280;18457;52.432;16.914;2023-04-21T03:35:35;100963.59;;;10.97;68.59
31911;BME280;18457;52.432;16.914;2023-04-21T03:38:10;100960.16;;;10.96;68.48
31911;BME280;18457;52.432;16.914;2023-04-21T03:40:42;100956.72;;;10.98;68.33
31911;BME280;18457;52.432;16.914;2023-04-21T03:43:14;100959.73;;;11.01;68.40
31911;BME280;18457;52.432;16.914;2023-04-21T03:45:46;100959.73;;;11.00;68.04
31911;BME280;18457;52.432;16.914;2023-04-21T03:48:21;100957.21;;;11.00;68.07
31911;BME280;18457;52.432;16.914;2023-04-21T03:50:53;100960.77;;;10.93;68.46
31911;BME280;18457;52.432;16.914;2023-04-21T03:53:25;100962.60;;;10.92;68.37
31911;BME280;18457;52.432;16.914;2023-04-21T03:55:57;100958.83;;;10.90;68.37
31911;BME280;18457;52.432;16.914;2023-04-21T03:58:31;100961.35;;;10.90;68.20
31911;BME280;18457;52.432;16.914;2023-04-21T04:01:05;100962.30;;;10.88;68.40
31911;BME280;18457;52.432;16.914;2023-04-21T04:03:37;100960.63;;;10.91;68.34
31911;BME280;18457;52.432;16.914;2023-04-21T04:06:10;100960.58;;;10.83;68.36
31911;BME280;18457;52.432;16.914;2023-04-21T04:08:41;100965.81;;;10.84;68.20
31911;BME280;18457;52.432;16.914;2023-04-21T04:11:13;100962.27;;;10.79;68.32
31911;BME280;18457;52.432;16.914;2023-04-21T04:13:45;100962.83;;;10.79;68.11
31911;BME280;18457;52.432;16.914;2023-04-21T04:16:17;100966.04;;;10.80;68.12
31911;BME280;18457;52.432;16.914;2023-04-21T04:18:51;100966.92;;;10.81;68.13
31911;BME280;18457;52.432;16.914;2023-04-21T04:21:23;100965.96;;;10.85;67.94
31911;BME280;18457;52.432;16.914;2023-04-21T04:23:57;100971.00;;;10.87;67.91
31911;BME280;18457;52.432;16.914;2023-04-21T04:26:29;100975.09;;;10.91;67.83
31911;BME280;18457;52.432;16.914;2023-04-21T04:29:03;100972.11;;;10.85;67.67
31911;BME280;18457;52.432;16.914;2023-04-21T04:31:40;100975.73;;;10.84;67.57
31911;BME280;18457;52.432;16.914;2023-04-21T04:34:13;100978.77;;;10.86;67.74
31911;BME280;18457;52.432;16.914;2023-04-21T04:36:43;100978.30;;;10.82;67.78
31911;BME280;18457;52.432;16.914;2023-04-21T04:39:16;100977.58;;;10.83;67.90
31911;BME280;18457;52.432;16.914;2023-04-21T04:41:48;100979.71;;;10.84;67.79
31911;BME280;18457;52.432;16.914;2023-04-21T04:44:22;100978.62;;;10.84;67.85
31911;BME280;18457;52.432;16.914;2023-04-21T04:46:55;100981.34;;;10.84;67.57
31911;BME280;18457;52.432;16.914;2023-04-21T04:49:28;100981.57;;;10.81;67.62
31911;BME280;18457;52.432;16.914;2023-04-21T04:52:00;100984.64;;;10.81;67.61
31911;BME280;18457;52.432;16.914;2023-04-21T04:54:31;100983.85;;;10.85;67.57
31911;BME280;18457;52.432;16.914;2023-04-21T04:57:03;100983.09;;;10.87;67.79
31911;BME280;18457;52.432;16.914;2023-04-21T04:59:36;100981.03;;;10.92;67.47
31911;BME280;18457;52.432;16.914;2023-04-21T05:02:09;100985.39;;;10.91;67.11
31911;BME280;18457;52.432;16.914;2023-04-21T05:04:41;100981.03;;;10.92;67.11
31911;BME280;18457;52.432;16.914;2023-04-21T05:07:14;100977.44;;;10.91;67.14
31911;BME280;18457;52.432;16.914;2023-04-21T05:09:46;100975.47;;;10.89;67.38
31911;BME280;18457;52.432;16.914;2023-04-21T05:12:17;100977.24;;;10.91;66.97
31911;BME280;18457;52.432;16.914;2023-04-21T05:14:49;100978.60;;;10.97;66.99
31911;BME280;18457;52.432;16.914;2023-04-21T05:17:22;100975.52;;;10.98;66.61
31911;BME280;18457;52.432;16.914;2023-04-21T05:19:54;100975.95;;;11.04;66.68
31911;BME280;18457;52.432;16.914;2023-04-21T05:22:27;100978.29;;;11.05;67.34
31911;BME280;18457;52.432;16.914;2023-04-21T05:24:59;100980.20;;;11.09;66.83
31911;BME280;18457;52.432;16.914;2023-04-21T05:27:32;100984.32;;;11.11;66.69
31911;BME280;18457;52.432;16.914;2023-04-21T05:30:05;100987.40;;;11.11;66.44
31911;BME280;18457;52.432;16.914;2023-04-21T05:32:38;100988.81;;;11.13;66.09
31911;BME280;18457;52.432;16.914;2023-04-21T05:35:09;100985.02;;;11.12;66.12
31911;BME280;18457;52.432;16.914;2023-04-21T05:37:41;100987.02;;;11.13;65.99
31911;BME280;18457;52.432;16.914;2023-04-21T05:40:13;100986.96;;;11.15;65.94
31911;BME280;18457;52.432;16.914;2023-04-21T05:42:45;100987.33;;;11.16;66.03
31911;BME280;18457;52.432;16.914;2023-04-21T05:45:17;100991.27;;;11.18;65.87
31911;BME280;18457;52.432;16.914;2023-04-21T05:47:50;100990.45;;;11.23;65.68
31911;BME280;18457;52.432;16.914;2023-04-21T05:50:22;100990.44;;;11.24;65.60
31911;BME280;18457;52.432;16.914;2023-04-21T05:52:56;100989.75;;;11.21;65.53
31911;BME280;18457;52.432;16.914;2023-04-21T05:55:28;100990.77;;;11.26;65.59
31911;BME280;18457;52.432;16.914;2023-04-21T05:58:00;100993.41;;;11.30;65.18
31911;BME280;18457;52.432;16.914;2023-04-21T06:00:34;100996.93;;;11.35;64.99
31911;BME280;18457;52.432;16.914;2023-04-21T06:03:06;100991.39;;;11.41;64.65
31911;BME280;18457;52.432;16.914;2023-04-21T06:05:37;100989.38;;;11.43;64.60
31911;BME280;18457;52.432;16.914;2023-04-21T06:08:09;100987.48;;;11.48;64.41
31911;BME280;18457;52.432;16.914;2023-04-21T06:10:42;100984.38;;;11.49;64.40
31911;BME280;18457;52.432;16.914;2023-04-21T06:13:14;100986.45;;;11.54;63.97
31911;BME280;18457;52.432;16.914;2023-04-21T06:15:46;100985.34;;;11.56;64.04
31911;BME280;18457;52.432;16.914;2023-04-21T06:18:18;100983.81;;;11.60;63.96
31911;BME280;18457;52.432;16.914;2023-04-21T06:20:54;100985.90;;;11.65;63.73
31911;BME280;18457;52.432;16.914;2023-04-21T06:23:26;100984.71;;;11.71;63.76
31911;BME280;18457;52.432;16.914;2023-04-21T06:26:02;100984.28;;;11.75;63.74
31911;BME280;18457;52.432;16.914;2023-04-21T06:28:35;100982.62;;;11.76;63.74
31911;BME280;18457;52.432;16.914;2023-04-21T06:31:08;100980.84;;;11.84;63.48
31911;BME280;18457;52.432;16.914;2023-04-21T06:33:45;100988.12;;;11.91;63.49
31911;BME280;18457;52.432;16.914;2023-04-21T06:36:16;100986.55;;;11.97;63.16
31911;BME280;18457;52.432;16.914;2023-04-21T06:38:49;100986.10;;;12.01;62.98
31911;BME280;18457;52.432;16.914;2023-04-21T06:41:21;100983.65;;;12.05;63.59
31911;BME280;18457;52.432;16.914;2023-04-21T06:43:54;100988.10;;;12.09;62.70
31911;BME280;18457;52.432;16.914;2023-04-21T06:46:26;100986.52;;;12.15;62.68
31911;BME280;18457;52.432;16.914;2023-04-21T06:48:58;100980.66;;;12.18;62.45
31911;BME280;18457;52.432;16.914;2023-04-21T06:51:30;100984.91;;;12.23;62.08
31911;BME280;18457;52.432;16.914;2023-04-21T06:54:02;100981.41;;;12.26;61.80
31911;BME280;18457;52.432;16.914;2023-04-21T06:56:35;100981.04;;;12.27;61.61
31911;BME280;18457;52.432;16.914;2023-04-21T06:59:07;100979.54;;;12.29;61.47
31911;BME280;18457;52.432;16.914;2023-04-21T07:01:40;100980.20;;;12.32;61.74
31911;BME280;18457;52.432;16.914;2023-04-21T07:04:13;100978.00;;;12.40;62.08
31911;BME280;18457;52.432;16.914;2023-04-21T07:06:46;100979.54;;;12.45;61.73
31911;BME280;18457;52.432;16.914;2023-04-21T07:09:17;100979.45;;;12.48;61.85
31911;BME280;18457;52.432;16.914;2023-04-21T07:11:49;100978.05;;;12.55;62.10
31911;BME280;18457;52.432;16.914;2023-04-21T07:14:21;100981.70;;;12.61;62.23
31911;BME280;18457;52.432;16.914;2023-04-21T07:16:54;100983.14;;;12.69;62.93
31911;BME280;18457;52.432;16.914;2023-04-21T07:19:27;100986.08;;;12.75;62.35
31911;BME280;18457;52.432;16.914;2023-04-21T07:22:02;100984.89;;;12.80;61.50
31911;BME280;18457;52.432;16.914;2023-04-21T07:24:44;100987.14;;;12.84;61.18
31911;BME280;18457;52.432;16.914;2023-04-21T07:27:23;100984.99;;;12.89;61.66
31911;BME280;18457;52.432;16.914;2023-04-21T07:29:55;100985.45;;;13.01;61.95
31911;BME280;18457;52.432;16.914;2023-04-21T07:32:28;100982.77;;;13.08;61.71
31911;BME280;18457;52.432;16.914;2023-04-21T07:35:00;100983.92;;;13.12;61.50
31911;BME280;18457;52.432;16.914;2023-04-21T07:37:32;100979.86;;;13.16;60.47
31911;BME280;18457;52.432;16.914;2023-04-21T07:40:06;100980.77;;;13.23;60.18
31911;BME280;18457;52.432;16.914;2023-04-21T07:42:39;100982.87;;;13.25;59.89
31911;BME280;18457;52.432;16.914;2023-04-21T07:45:10;100981.86;;;13.30;59.25
31911;BME280;18457;52.432;16.914;2023-04-21T07:47:43;100983.36;;;13.35;59.27
31911;BME280;18457;52.432;16.914;2023-04-21T07:50:16;100977.83;;;13.38;58.55
31911;BME280;18457;52.432;16.914;2023-04-21T07:52:47;100981.88;;;13.42;58.26
31911;BME280;18457;52.432;16.914;2023-04-21T07:55:19;100979.73;;;13.48;59.06
31911;BME280;18457;52.432;16.914;2023-04-21T07:57:52;100980.85;;;13.54;59.45
31911;BME280;18457;52.432;16.914;2023-04-21T08:00:24;100979.67;;;13.63;59.28
31911;BME280;18457;52.432;16.914;2023-04-21T08:02:56;100975.98;;;13.66;59.04
31911;BME280;18457;52.432;16.914;2023-04-21T08:05:29;100971.20;;;13.68;58.68
31911;BME280;18457;52.432;16.914;2023-04-21T08:08:08;100975.57;;;13.73;58.46
31911;BME280;18457;52.432;16.914;2023-04-21T08:10:41;100976.18;;;13.78;58.36
31911;BME280;18457;52.432;16.914;2023-04-21T08:13:13;100974.08;;;13.82;57.04
31911;BME280;18457;52.432;16.914;2023-04-21T08:15:45;100970.86;;;13.86;57.12
31911;BME280;18457;52.432;16.914;2023-04-21T08:18:18;100969.94;;;13.93;56.90
31911;BME280;18457;52.432;16.914;2023-04-21T08:20:53;100962.70;;;14.04;57.60
31911;BME280;18457;52.432;16.914;2023-04-21T08:23:29;100961.76;;;14.12;57.32
31911;BME280;18457;52.432;16.914;2023-04-21T08:26:04;100963.02;;;14.18;56.32
31911;BME280;18457;52.432;16.914;2023-04-21T08:28:41;100964.53;;;14.22;54.50
31911;BME280;18457;52.432;16.914;2023-04-21T08:31:15;100966.19;;;14.28;53.91
31911;BME280;18457;52.432;16.914;2023-04-21T08:33:49;100963.67;;;14.34;54.50
31911;BME280;18457;52.432;16.914;2023-04-21T08:36:32;100964.02;;;14.40;54.06
31911;BME280;18457;52.432;16.914;2023-04-21T08:39:05;100958.73;;;14.46;53.75
31911;BME280;18457;52.432;16.914;2023-04-21T08:41:40;100953.46;;;14.52;53.54
31911;BME280;18457;52.432;16.914;2023-04-21T08:44:12;100956.77;;;14.57;53.34
31911;BME280;18457;52.432;16.914;2023-04-21T08:46:56;100950.10;;;14.60;53.12
31911;BME280;18457;52.432;16.914;2023-04-21T08:49:31;100950.77;;;14.68;52.54
31911;BME280;18457;52.432;16.914;2023-04-21T08:52:07;100953.00;;;14.83;52.51
31911;BME280;18457;52.432;16.914;2023-04-21T08:54:39;100950.81;;;14.89;52.48
31911;BME280;18457;52.432;16.914;2023-04-21T08:57:11;100951.52;;;15.00;52.36
31911;BME280;18457;52.432;16.914;2023-04-21T08:59:46;100951.11;;;15.44;70.41
31911;BME280;18457;52.432;16.914;2023-04-21T09:02:19;100950.50;;;15.81;68.69
31911;BME280;18457;52.432;16.914;2023-04-21T09:04:52;100943.39;;;16.06;68.16
31911;BME280;18457;52.432;16.914;2023-04-21T09:07:33;100948.82;;;16.35;68.77
31911;BME280;18457;52.432;16.914;2023-04-21T09:10:07;100948.22;;;16.41;60.39
31911;BME280;18457;52.432;16.914;2023-04-21T09:12:40;100950.89;;;16.57;62.80
31911;BME280;18457;52.432;16.914;2023-04-21T09:15:12;100947.14;;;16.60;59.66
31911;BME280;18457;52.432;16.914;2023-04-21T09:17:45;100947.91;;;16.77;65.90
31911;BME280;18457;52.432;16.914;2023-04-21T09:20:19;100948.24;;;16.82;59.21
31911;BME280;18457;52.432;16.914;2023-04-21T09:22:51;100947.74;;;16.94;59.49
31911;BME280;18457;52.432;16.914;2023-04-21T09:25:25;100947.25;;;17.05;58.45
31911;BME280;18457;52.432;16.914;2023-04-21T09:27:57;100948.55;;;17.18;56.82
31911;BME280;18457;52.432;16.914;2023-04-21T09:30:30;100945.05;;;17.06;48.56
31911;BME280;18457;52.432;16.914;2023-04-21T09:33:06;100947.46;;;16.96;46.91
31911;BME280;18457;52.432;16.914;2023-04-21T09:36:01;100938.70;;;16.92;46.70
31911;BME280;18457;52.432;16.914;2023-04-21T09:38:34;100931.61;;;16.87;47.07
31911;BME280;18457;52.432;16.914;2023-04-21T09:41:07;100940.42;;;17.03;50.19
31911;BME280;18457;52.432;16.914;2023-04-21T09:43:40;100939.48;;;17.29;52.97
31911;BME280;18457;52.432;16.914;2023-04-21T09:46:13;100936.30;;;17.39;49.14
31911;BME280;18457;52.432;16.914;2023-04-21T09:48:49;100930.85;;;17.64;51.82
31911;BME280;18457;52.432;16.914;2023-04-21T09:51:25;100935.73;;;17.81;51.70
31911;BME280;18457;52.432;16.914;2023-04-21T09:54:19;100932.20;;;17.94;50.53
31911;BME280;18457;52.432;16.914;2023-04-21T09:56:57;100931.54;;;18.08;49.27
31911;BME280;18457;52.432;16.914;2023-04-21T09:59:33;100929.15;;;18.28;51.35
31911;BME280;18457;52.432;16.914;2023-04-21T10:02:07;100931.04;;;18.34;46.67
31911;BME280;18457;52.432;16.914;2023-04-21T10:04:42;100923.77;;;18.42;47.43
31911;BME280;18457;52.432;16.914;2023-04-21T10:07:15;100925.71;;;18.31;44.02
31911;BME280;18457;52.432;16.914;2023-04-21T10:09:59;100921.34;;;18.38;46.90
31911;BME280;18457;52.432;16.914;2023-04-21T10:12:34;100917.25;;;18.55;49.10
31911;BME280;18457;52.432;16.914;2023-04-21T10:15:29;100917.52;;;18.65;47.45
31911;BME280;18457;52.432;16.914;2023-04-21T10:18:15;100916.56;;;18.73;47.98
31911;BME280;18457;52.432;16.914;2023-04-21T10:20:56;100914.80;;;18.86;49.37
31911;BME280;18457;52.432;16.914;2023-04-21T10:23:35;100916.22;;;18.98;46.77
31911;BME280;18457;52.432;16.914;2023-04-21T10:26:33;100914.58;;;19.15;47.24
31911;BME280;18457;52.432;16.914;2023-04-21T10:29:07;100914.36;;;19.31;47.66
31911;BME280;18457;52.432;16.914;2023-04-21T10:31:51;100908.60;;;19.40;45.23
31911;BME280;18457;52.432;16.914;2023-04-21T10:34:33;100904.19;;;19.50;45.46
31911;BME280;18457;52.432;16.914;2023-04-21T10:37:30;100907.02;;;19.42;41.95
31911;BME280;18457;52.432;16.914;2023-04-21T10:40:02;100900.45;;;19.27;41.10
31911;BME280;18457;52.432;16.914;2023-04-21T10:42:39;100900.02;;;19.35;41.41
31911;BME280;18457;52.432;16.914;2023-04-21T10:45:12;100896.87;;;19.56;44.12
31911;BME280;18457;52.432;16.914;2023-04-21T10:47:49;100892.88;;;19.66;42.11
31911;BME280;18457;52.432;16.914;2023-04-21T10:50:27;100893.98;;;19.79;41.82
31911;BME280;18457;52.432;16.914;2023-04-21T10:53:08;100894.73;;;19.92;41.15
31911;BME280;18457;52.432;16.914;2023-04-21T10:55:41;100897.30;;;19.99;40.41
31911;BME280;18457;52.432;16.914;2023-04-21T10:58:15;100894.67;;;20.07;39.58
31911;BME280;18457;52.432;16.914;2023-04-21T11:00:54;100891.23;;;20.03;38.28
31911;BME280;18457;52.432;16.914;2023-04-21T11:03:35;100890.92;;;20.15;38.20
31911;BME280;18457;52.432;16.914;2023-04-21T11:06:17;100892.22;;;20.21;38.02
31911;BME280;18457;52.432;16.914;2023-04-21T11:08:57;100890.02;;;20.28;37.51
31911;BME280;18457;52.432;16.914;2023-04-21T11:11:34;100888.36;;;20.38;37.84
31911;BME280;18457;52.432;16.914;2023-04-21T11:14:20;100877.98;;;20.27;36.58
31911;BME280;18457;52.432;16.914;2023-04-21T11:17:09;100881.16;;;20.42;37.94
31911;BME280;18457;52.432;16.914;2023-04-21T11:19:55;100873.52;;;20.50;37.51
31911;BME280;18457;52.432;16.914;2023-04-21T11:22:32;100876.38;;;20.36;36.82
31911;BME280;18457;52.432;16.914;2023-04-21T11:25:17;100872.92;;;20.54;41.12
31911;BME280;18457;52.432;16.914;2023-04-21T11:27:58;100868.88;;;20.35;36.83
31911;BME280;18457;52.432;16.914;2023-04-21T11:30:35;100866.93;;;20.59;40.94
31911;BME280;18457;52.432;16.914;2023-04-21T11:33:10;100862.48;;;20.72;38.29
31911;BME280;18457;52.432;16.914;2023-04-21T11:35:45;100858.00;;;20.67;36.63
31911;BME280;18457;52.432;16.914;2023-04-21T11:38:25;100856.09;;;20.43;35.95
31911;BME280;18457;52.432;16.914;2023-04-21T11:41:00;100855.52;;;20.69;38.62
31911;BME280;18457;52.432;16.914;2023-04-21T11:43:34;100852.96;;;20.59;36.14
31911;BME280;18457;52.432;16.914;2023-04-21T11:46:17;100856.23;;;20.72;38.24
31911;BME280;18457;52.432;16.914;2023-04-21T11:49:02;100852.61;;;20.71;36.04
31911;BME280;18457;52.432;16.914;2023-04-21T11:51:36;100845.83;;;20.50;36.13
31911;BME280;18457;52.432;16.914;2023-04-21T11:54:10;100842.62;;;20.39;35.20
31911;BME280;18457;52.432;16.914;2023-04-21T11:56:45;100842.73;;;20.52;35.43
31911;BME280;18457;52.432;16.914;2023-04-21T11:59:18;100843.16;;;20.54;34.75
31911;BME280;18457;52.432;16.914;2023-04-21T12:01:55;100836.90;;;20.58;35.05
31911;BME280;18457;52.432;16.914;2023-04-21T12:04:27;100837.58;;;20.77;36.11
31911;BME280;18457;52.432;16.914;2023-04-21T12:07:04;100834.50;;;20.92;35.32
31911;BME280;18457;52.432;16.914;2023-04-21T12:09:37;100834.86;;;20.55;33.34
31911;BME280;18457;52.432;16.914;2023-04-21T12:12:10;100831.05;;;20.60;34.35
31911;BME280;18457;52.432;16.914;2023-04-21T12:14:45;100825.05;;;20.53;34.56
31911;BME280;18457;52.432;16.914;2023-04-21T12:17:19;100807.76;;;20.51;35.17
31911;BME280;18457;52.432;16.914;2023-04-21T12:19:52;100815.45;;;20.51;34.73
31911;BME280;18457;52.432;16.914;2023-04-21T12:22:26;100811.60;;;20.54;34.70
31911;BME280;18457;52.432;16.914;2023-04-21T12:24:59;100815.46;;;20.60;34.50
31911;BME280;18457;52.432;16.914;2023-04-21T12:27:30;100812.23;;;20.65;34.33
31911;BME280;18457;52.432;16.914;2023-04-21T12:30:03;100805.40;;;20.62;34.14
31911;BME280;18457;52.432;16.914;2023-04-21T12:32:35;100809.20;;;20.73;34.51
31911;BME280;18457;52.432;16.914;2023-04-21T12:35:09;100805.92;;;20.78;34.37
31911;BME280;18457;52.432;16.914;2023-04-21T12:37:41;100802.04;;;20.72;33.68
31911;BME280;18457;52.432;16.914;2023-04-21T12:40:13;100798.19;;;20.82;34.13
31911;BME280;18457;52.432;16.914;2023-04-21T12:42:45;100796.55;;;20.75;33.70
31911;BME280;18457;52.432;16.914;2023-04-21T12:45:18;100799.61;;;20.64;32.42
31911;BME280;18457;52.432;16.914;2023-04-21T12:47:50;100797.26;;;20.57;32.52
31911;BME280;18457;52.432;16.914;2023-04-21T12:50:23;100795.02;;;20.30;32.48
31911;BME280;18457;52.432;16.914;2023-04-21T12:52:55;100796.05;;;20.28;33.33
31911;BME280;18457;52.432;16.914;2023-04-21T12:55:27;100789.73;;;20.10;32.90
31911;BME280;18457;52.432;16.914;2023-04-21T12:57:59;100783.70;;;20.16;33.36
31911;BME280;18457;52.432;16.914;2023-04-21T13:00:30;100774.17;;;20.29;34.20
31911;BME280;18457;52.432;16.914;2023-04-21T13:03:03;100784.14;;;20.50;34.33
31911;BME280;18457;52.432;16.914;2023-04-21T13:05:36;100776.48;;;20.58;33.30
31911;BME280;18457;52.432;16.914;2023-04-21T13:08:06;100778.56;;;20.72;33.51
31911;BME280;18457;52.432;16.914;2023-04-21T13:10:38;100774.30;;;20.79;33.38
31911;BME280;18457;52.432;16.914;2023-04-21T13:13:11;100770.95;;;20.82;33.14
31911;BME280;18457;52.432;16.914;2023-04-21T13:15:43;100767.59;;;20.83;33.20